createdAt,value
2023-06-12T00:00:47.687Z,4.15
2023-06-12T00:02:50.466Z,3.78
2023-06-12T00:04:56.084Z,3.75
2023-06-12T00:06:59.476Z,3.90
2023-06-12T00:09:02.270Z,3.90
2023-06-12T00:11:08.309Z,4.05
2023-06-12T00:13:11.099Z,4.03
2023-06-12T00:15:13.922Z,3.90
2023-06-12T00:17:17.970Z,4.10
2023-06-12T00:19:21.778Z,4.22
2023-06-12T00:21:24.840Z,3.78
2023-06-12T00:23:27.692Z,3.60
2023-06-12T00:25:30.637Z,3.38
2023-06-12T00:27:33.392Z,4.30
2023-06-12T00:29:36.120Z,3.65
2023-06-12T00:31:38.914Z,3.70
2023-06-12T00:33:43.395Z,3.72
2023-06-12T00:35:46.337Z,3.80
2023-06-12T00:37:50.131Z,3.80
2023-06-12T00:39:53.175Z,3.85
2023-06-12T00:41:56.002Z,3.65
2023-06-12T00:43:58.736Z,3.85
2023-06-12T00:46:02.043Z,4.13
2023-06-12T00:48:08.006Z,3.85
2023-06-12T00:50:14.154Z,3.83
2023-06-12T00:52:17.928Z,3.92
2023-06-12T00:54:20.863Z,3.38
2023-06-12T00:56:23.557Z,3.75
2023-06-12T00:58:26.451Z,3.92
2023-06-12T01:00:29.289Z,3.72
2023-06-12T01:02:32.179Z,3.85
2023-06-12T01:04:35.511Z,3.85
2023-06-12T01:06:47.243Z,3.72
2023-06-12T01:08:59.024Z,4.07
2023-06-12T01:11:06.391Z,4.05
2023-06-12T01:13:11.260Z,3.47
2023-06-12T01:15:15.322Z,3.65
2023-06-12T01:17:18.378Z,4.45
2023-06-12T01:19:22.302Z,3.92
2023-06-12T01:21:30.606Z,4.00
2023-06-12T01:23:53.790Z,3.92
2023-06-12T01:26:12.950Z,4.00
2023-06-12T01:28:30.600Z,3.75
2023-06-12T01:31:09.447Z,3.65
2023-06-12T01:33:18.554Z,3.65
2023-06-12T01:35:25.213Z,3.53
2023-06-12T01:37:33.745Z,3.72
2023-06-12T01:39:47.543Z,3.78
2023-06-12T01:41:51.705Z,4.03
2023-06-12T01:43:54.427Z,3.85
2023-06-12T01:45:57.193Z,3.72
2023-06-12T01:48:00.272Z,3.30
2023-06-12T01:50:05.992Z,4.20
2023-06-12T01:52:08.880Z,3.90
2023-06-12T01:54:11.563Z,3.70
2023-06-12T01:56:15.625Z,4.28
2023-06-12T01:58:18.522Z,4.07
2023-06-12T02:00:21.452Z,3.92
2023-06-12T02:02:24.481Z,4.00
2023-06-12T02:04:29.251Z,4.05
2023-06-12T02:06:33.479Z,3.85
2023-06-12T02:08:36.589Z,4.50
2023-06-12T02:10:39.921Z,3.80
2023-06-12T02:12:44.554Z,4.30
2023-06-12T02:14:48.485Z,3.80
2023-06-12T02:16:54.721Z,3.90
2023-06-12T02:18:57.481Z,4.50
2023-06-12T02:21:00.180Z,4.00
2023-06-12T02:23:04.193Z,4.95
2023-06-12T02:25:08.286Z,3.92
2023-06-12T02:27:11.203Z,4.20
2023-06-12T02:29:15.504Z,4.53
2023-06-12T02:31:18.247Z,4.10
2023-06-12T02:33:23.347Z,4.25
2023-06-12T02:35:26.056Z,3.92
2023-06-12T02:37:29.744Z,4.05
2023-06-12T02:39:33.832Z,4.18
2023-06-12T02:41:37.353Z,3.95
2023-06-12T02:43:40.643Z,3.58
2023-06-12T02:45:43.397Z,3.88
2023-06-12T02:47:46.402Z,4.07
2023-06-12T02:49:49.109Z,4.00
2023-06-12T02:51:51.917Z,4.28
2023-06-12T02:53:54.682Z,4.22
2023-06-12T02:55:58.843Z,3.80
2023-06-12T02:58:01.519Z,4.32
2023-06-12T03:00:04.881Z,4.20
2023-06-12T03:02:07.996Z,4.40
2023-06-12T03:04:11.548Z,4.28
2023-06-12T03:06:15.125Z,3.75
2023-06-12T03:08:17.815Z,3.72
2023-06-12T03:10:20.674Z,4.22
2023-06-12T03:12:24.755Z,4.35
2023-06-12T03:14:27.549Z,4.30
2023-06-12T03:16:31.493Z,4.32
2023-06-12T03:18:34.321Z,4.70
2023-06-12T03:20:37.038Z,4.10
2023-06-12T03:22:39.705Z,4.85
2023-06-12T03:24:42.456Z,4.80
2023-06-12T03:26:45.216Z,4.03
2023-06-12T03:28:49.455Z,4.15
2023-06-12T03:30:52.461Z,4.32
2023-06-12T03:32:57.381Z,4.10
2023-06-12T03:35:00.313Z,4.68
2023-06-12T03:37:03.039Z,4.05
2023-06-12T03:39:06.432Z,4.07
2023-06-12T03:41:09.212Z,3.97
2023-06-12T03:43:11.942Z,4.55
2023-06-12T03:45:16.136Z,4.55
2023-06-12T03:47:19.050Z,4.10
2023-06-12T03:49:22.159Z,4.20
2023-06-12T03:51:24.858Z,3.80
2023-06-12T03:53:27.600Z,4.60
2023-06-12T03:55:30.452Z,4.85
2023-06-12T03:57:33.257Z,4.72
2023-06-12T03:59:36.358Z,4.63
2023-06-12T04:01:43.783Z,4.95
2023-06-12T04:03:47.174Z,4.60
2023-06-12T04:05:50.232Z,4.38
2023-06-12T04:07:52.958Z,4.30
2023-06-12T04:09:55.873Z,4.85
2023-06-12T04:11:58.636Z,4.50
2023-06-12T04:14:01.347Z,4.20
2023-06-12T04:16:05.017Z,4.03
2023-06-12T04:18:11.166Z,4.13
2023-06-12T04:20:14.921Z,4.15
2023-06-12T04:22:18.028Z,4.72
2023-06-12T04:24:22.448Z,4.70
2023-06-12T04:26:27.924Z,4.60
2023-06-12T04:28:30.743Z,4.20
2023-06-12T04:30:34.425Z,4.13
2023-06-12T04:32:37.333Z,4.50
2023-06-12T04:34:42.320Z,4.30
2023-06-12T04:36:46.625Z,4.72
2023-06-12T04:38:51.639Z,4.50
2023-06-12T04:40:55.749Z,3.92
2023-06-12T04:43:00.632Z,3.75
2023-06-12T04:45:05.614Z,4.00
2023-06-12T04:47:09.665Z,4.22
2023-06-12T04:49:12.526Z,4.43
2023-06-12T04:51:16.769Z,4.38
2023-06-12T04:53:20.739Z,4.28
2023-06-12T04:55:23.546Z,4.25
2023-06-12T04:57:26.322Z,4.70
2023-06-12T04:59:29.054Z,4.45
2023-06-12T05:01:34.143Z,4.40
2023-06-12T05:03:38.794Z,4.80
2023-06-12T05:05:41.501Z,4.40
2023-06-12T05:07:47.441Z,4.45
2023-06-12T05:09:50.408Z,4.40
2023-06-12T05:11:53.212Z,4.18
2023-06-12T05:13:56.441Z,4.35
2023-06-12T05:15:59.243Z,4.78
2023-06-12T05:18:02.175Z,4.50
2023-06-12T05:20:09.570Z,4.43
2023-06-12T05:22:12.485Z,4.47
2023-06-12T05:24:16.703Z,4.43
2023-06-12T05:26:19.562Z,4.53
2023-06-12T05:28:22.252Z,4.80
2023-06-12T05:30:25.032Z,4.50
2023-06-12T05:32:28.056Z,4.80
2023-06-12T05:34:30.846Z,5.10
2023-06-12T05:36:33.711Z,4.47
2023-06-12T05:38:36.501Z,4.45
2023-06-12T05:40:40.574Z,4.53
2023-06-12T05:42:43.264Z,5.13
2023-06-12T05:44:47.584Z,5.30
2023-06-12T05:46:53.475Z,4.25
2023-06-12T05:48:58.354Z,4.55
2023-06-12T05:51:01.334Z,4.28
2023-06-12T05:53:09.559Z,4.50
2023-06-12T05:55:13.077Z,4.60
2023-06-12T05:57:17.365Z,4.80
2023-06-12T05:59:20.174Z,4.88
2023-06-12T06:01:26.216Z,4.30
2023-06-12T06:03:34.029Z,4.30
2023-06-12T06:05:37.816Z,4.88
2023-06-12T06:07:40.569Z,4.82
2023-06-12T06:09:43.351Z,4.57
2023-06-12T06:11:46.109Z,4.95
2023-06-12T06:13:50.286Z,4.93
2023-06-12T06:15:53.440Z,4.85
2023-06-12T06:17:56.382Z,4.85
2023-06-12T06:19:59.352Z,4.80
2023-06-12T06:22:02.067Z,4.55
2023-06-12T06:24:05.293Z,4.78
2023-06-12T06:26:08.034Z,4.45
2023-06-12T06:28:10.772Z,4.35
2023-06-12T06:30:15.922Z,4.60
2023-06-12T06:32:19.330Z,4.53
2023-06-12T06:34:22.786Z,4.75
2023-06-12T06:36:25.534Z,5.28
2023-06-12T06:38:28.371Z,5.03
2023-06-12T06:40:31.044Z,5.03
2023-06-12T06:42:33.827Z,4.65
2023-06-12T06:44:36.705Z,4.68
2023-06-12T06:46:40.962Z,4.70
2023-06-12T06:48:43.684Z,4.80
2023-06-12T06:50:46.779Z,4.88
2023-06-12T06:52:49.528Z,4.75
2023-06-12T06:54:52.198Z,4.70
2023-06-12T06:56:54.938Z,4.53
2023-06-12T06:58:57.657Z,4.32
2023-06-12T07:01:00.480Z,4.57
2023-06-12T07:03:04.717Z,4.85
2023-06-12T07:05:08.821Z,4.70
2023-06-12T07:07:11.788Z,4.50
2023-06-12T07:09:15.333Z,4.32
2023-06-12T07:11:18.039Z,4.70
2023-06-12T07:13:20.776Z,4.28
2023-06-12T07:15:23.760Z,4.07
2023-06-12T07:17:26.523Z,4.63
2023-06-12T07:19:31.595Z,4.65
2023-06-12T07:21:34.362Z,4.72
2023-06-12T07:23:37.123Z,4.05
2023-06-12T07:25:40.057Z,4.75
2023-06-12T07:27:42.916Z,3.97
2023-06-12T07:29:45.637Z,4.80
2023-06-12T07:31:49.024Z,4.78
2023-06-12T07:33:51.777Z,4.25
2023-06-12T07:35:56.036Z,4.60
2023-06-12T07:37:58.772Z,4.40
2023-06-12T07:40:01.515Z,4.13
2023-06-12T07:42:04.633Z,4.07
2023-06-12T07:44:07.749Z,4.55
2023-06-12T07:46:10.479Z,4.80
2023-06-12T07:48:13.432Z,4.72
2023-06-12T07:50:16.710Z,4.05
2023-06-12T07:52:22.143Z,4.53
2023-06-12T07:54:24.827Z,4.22
2023-06-12T07:56:27.780Z,4.18
2023-06-12T07:58:30.528Z,4.88
2023-06-12T08:00:33.804Z,4.38
2023-06-12T08:02:37.266Z,4.32
2023-06-12T08:04:41.852Z,3.95
2023-06-12T08:06:46.031Z,4.63
2023-06-12T08:08:50.540Z,4.15
2023-06-12T08:10:53.372Z,4.03
2023-06-12T08:12:56.103Z,3.75
2023-06-12T08:14:58.778Z,4.18
2023-06-12T08:17:01.640Z,4.78
2023-06-12T08:19:04.412Z,4.50
2023-06-12T08:21:07.099Z,4.15
2023-06-12T08:23:09.843Z,4.47
2023-06-12T08:25:14.102Z,4.15
2023-06-12T08:27:17.056Z,4.00
2023-06-12T08:29:19.750Z,4.20
2023-06-12T08:31:23.007Z,3.90
2023-06-12T08:33:25.981Z,4.38
2023-06-12T08:35:28.704Z,3.90
2023-06-12T08:37:32.841Z,4.20
2023-06-12T08:39:35.608Z,4.22
2023-06-12T08:41:48.062Z,4.35
2023-06-12T08:43:54.433Z,4.40
2023-06-12T08:45:59.283Z,4.35
2023-06-12T08:48:03.859Z,3.85
2023-06-12T08:50:07.518Z,4.15
2023-06-12T08:52:11.336Z,4.50
2023-06-12T08:54:16.821Z,4.03
2023-06-12T08:56:20.507Z,4.40
2023-06-12T08:58:24.680Z,5.05
2023-06-12T09:00:27.440Z,4.28
2023-06-12T09:02:31.120Z,4.35
2023-06-12T09:04:42.837Z,4.53
2023-06-12T09:06:46.697Z,4.40
2023-06-12T09:08:49.556Z,4.50
2023-06-12T09:10:53.567Z,4.20
2023-06-12T09:12:57.138Z,3.83
2023-06-12T09:15:02.978Z,4.22
2023-06-12T09:17:06.805Z,4.18
2023-06-12T09:19:09.800Z,4.28
2023-06-12T09:21:13.771Z,4.15
2023-06-12T09:23:16.875Z,3.58
2023-06-12T09:25:19.744Z,4.15
2023-06-12T09:27:23.585Z,4.25
2023-06-12T09:29:29.955Z,4.20
2023-06-12T09:31:36.093Z,4.15
2023-06-12T09:33:41.525Z,4.47
2023-06-12T09:35:54.039Z,4.30
2023-06-12T09:37:59.181Z,3.70
2023-06-12T09:40:12.749Z,4.03
2023-06-12T09:42:18.538Z,4.22
2023-06-12T09:44:25.918Z,4.43
2023-06-12T09:46:29.069Z,4.35
2023-06-12T09:48:38.262Z,4.40
2023-06-12T09:50:41.225Z,4.03
2023-06-12T09:52:46.104Z,4.47
2023-06-12T09:54:50.281Z,4.50
2023-06-12T09:56:55.230Z,4.30
2023-06-12T09:59:00.812Z,4.78
2023-06-12T10:01:06.776Z,4.00
2023-06-12T10:03:14.715Z,4.40
2023-06-12T10:05:22.261Z,4.40
2023-06-12T10:07:29.668Z,3.95
2023-06-12T10:09:33.358Z,4.40
2023-06-12T10:11:38.003Z,4.68
2023-06-12T10:13:41.247Z,4.38
2023-06-12T10:15:44.544Z,4.72
2023-06-12T10:17:48.674Z,4.70
2023-06-12T10:19:55.253Z,4.38
2023-06-12T10:22:00.838Z,4.45
2023-06-12T10:24:04.649Z,4.13
2023-06-12T10:26:07.921Z,4.07
2023-06-12T10:28:12.461Z,4.20
2023-06-12T10:30:18.797Z,3.97
2023-06-12T10:32:23.088Z,4.18
2023-06-12T10:34:25.846Z,3.92
2023-06-12T10:36:40.634Z,4.85
2023-06-12T10:38:49.272Z,4.18
2023-06-12T10:40:52.527Z,3.92
2023-06-12T10:43:03.710Z,4.35
2023-06-12T10:45:18.534Z,4.70
2023-06-12T10:47:24.448Z,4.10
2023-06-12T10:49:27.496Z,3.80
2023-06-12T10:51:34.509Z,4.55
2023-06-12T10:53:37.235Z,4.45
2023-06-12T10:55:42.678Z,3.92
2023-06-12T10:57:49.683Z,4.72
2023-06-12T10:59:58.194Z,4.70
2023-06-12T11:02:01.195Z,4.05
2023-06-12T11:04:06.692Z,4.00
2023-06-12T11:06:14.279Z,4.20
2023-06-12T11:08:17.485Z,4.40
2023-06-12T11:10:20.170Z,4.07
2023-06-12T11:12:26.344Z,3.97
2023-06-12T11:14:33.765Z,4.10
2023-06-12T11:16:42.464Z,4.25
2023-06-12T11:18:45.276Z,4.07
2023-06-12T11:20:53.289Z,4.60
2023-06-12T11:23:02.720Z,4.35
2023-06-12T11:25:07.577Z,4.10
2023-06-12T11:27:11.225Z,3.97
2023-06-12T11:29:19.116Z,4.38
2023-06-12T11:31:24.072Z,4.63
2023-06-12T11:33:27.168Z,4.47
2023-06-12T11:35:29.872Z,4.43
2023-06-12T11:37:33.431Z,4.22
2023-06-12T11:41:42.175Z,4.40
2023-06-12T11:43:45.574Z,4.13
2023-06-12T11:45:50.571Z,4.68
2023-06-12T11:49:59.111Z,4.07
2023-06-12T11:52:02.697Z,4.13
2023-06-12T11:54:05.669Z,3.97
2023-06-12T11:58:15.913Z,4.35
2023-06-12T12:02:31.284Z,3.88
2023-06-12T12:04:34.198Z,3.78
2023-06-12T12:06:49.089Z,4.28
2023-06-12T12:08:56.729Z,3.63
2023-06-12T12:10:59.606Z,4.38
2023-06-12T12:13:04.210Z,4.05
2023-06-12T12:15:08.366Z,3.90
2023-06-12T12:17:11.142Z,3.83
2023-06-12T12:19:19.530Z,3.70
2023-06-12T12:21:24.403Z,4.00
2023-06-12T12:23:27.456Z,3.95
2023-06-12T12:25:32.446Z,4.07
2023-06-12T12:27:35.804Z,4.10
2023-06-12T12:29:50.957Z,4.25
2023-06-12T12:32:01.296Z,3.92
2023-06-12T12:34:04.131Z,3.63
2023-06-12T12:36:08.547Z,4.18
2023-06-12T12:38:11.330Z,3.80
2023-06-12T12:40:15.901Z,4.07
2023-06-12T12:42:19.372Z,3.75
2023-06-12T12:44:22.145Z,3.75
2023-06-12T12:46:25.104Z,3.92
2023-06-12T12:48:27.871Z,4.20
2023-06-12T12:50:33.001Z,3.85
2023-06-12T12:52:38.949Z,3.75
2023-06-12T12:54:41.721Z,4.38
2023-06-12T12:56:44.603Z,3.65
2023-06-12T12:58:47.380Z,4.43
2023-06-12T13:00:51.329Z,3.90
2023-06-12T13:02:54.554Z,3.88
2023-06-12T13:04:57.345Z,4.00
2023-06-12T13:07:00.168Z,3.35
2023-06-12T13:09:04.874Z,4.00
2023-06-12T13:11:07.547Z,3.35
2023-06-12T13:13:11.467Z,4.30
2023-06-12T13:15:15.371Z,3.97
2023-06-12T13:17:18.114Z,4.15
2023-06-12T13:19:21.671Z,3.92
2023-06-12T13:21:24.427Z,3.80
2023-06-12T13:23:27.185Z,4.18
2023-06-12T13:25:31.337Z,3.90
2023-06-12T13:27:34.064Z,4.40
2023-06-12T13:29:36.857Z,3.97
2023-06-12T13:31:39.691Z,4.03
2023-06-12T13:33:42.488Z,3.85
2023-06-12T13:35:47.153Z,3.97
2023-06-12T13:37:49.898Z,3.80
2023-06-12T13:39:52.791Z,4.20
2023-06-12T13:41:57.653Z,3.65
2023-06-12T13:44:00.442Z,3.78
2023-06-12T13:46:03.533Z,4.13
2023-06-12T13:48:06.553Z,4.00
2023-06-12T13:50:12.428Z,4.38
2023-06-12T13:52:15.829Z,4.20
2023-06-12T13:54:18.543Z,4.03
2023-06-12T13:56:21.888Z,4.30
2023-06-12T13:58:26.670Z,4.32
2023-06-12T14:00:30.017Z,4.30
2023-06-12T14:02:32.829Z,3.78
2023-06-12T14:04:35.954Z,4.05
2023-06-12T14:06:38.801Z,4.35
2023-06-12T14:08:42.503Z,4.88
2023-06-12T14:10:45.379Z,4.25
2023-06-12T14:12:48.168Z,4.15
2023-06-12T14:14:52.314Z,4.10
2023-06-12T14:16:55.340Z,4.10
2023-06-12T14:18:58.630Z,4.20
2023-06-12T14:21:02.512Z,4.15
2023-06-12T14:23:05.380Z,4.22
2023-06-12T14:25:08.860Z,4.40
2023-06-12T14:27:11.848Z,3.95
2023-06-12T14:29:14.659Z,4.22
2023-06-12T14:31:18.775Z,3.95
2023-06-12T14:33:21.695Z,4.43
2023-06-12T14:35:24.733Z,4.32
2023-06-12T14:37:27.561Z,4.38
2023-06-12T14:39:30.289Z,4.00
2023-06-12T14:41:33.024Z,4.22
2023-06-12T14:43:35.765Z,3.90
2023-06-12T14:45:38.489Z,4.07
2023-06-12T14:47:42.737Z,4.15
2023-06-12T14:49:45.560Z,4.55
2023-06-12T14:51:48.518Z,3.78
2023-06-12T14:53:51.354Z,4.05
2023-06-12T14:55:54.089Z,4.40
2023-06-12T14:57:56.869Z,3.83
2023-06-12T14:59:59.538Z,3.88
2023-06-12T15:02:02.496Z,4.40
2023-06-12T15:04:06.765Z,4.28
2023-06-12T15:06:09.646Z,4.30
2023-06-12T15:08:12.405Z,3.90
2023-06-12T15:10:15.215Z,3.63
2023-06-12T15:12:18.258Z,4.03
2023-06-12T15:14:20.954Z,4.03
2023-06-12T15:16:26.456Z,4.35
2023-06-12T15:18:43.036Z,3.78
2023-06-12T15:24:55.059Z,3.97
2023-06-12T15:26:57.816Z,4.22
2023-06-12T15:29:00.574Z,3.65
2023-06-12T15:31:03.363Z,4.20
2023-06-12T15:33:06.294Z,4.38
2023-06-12T15:35:09.851Z,4.32
2023-06-12T15:37:17.014Z,4.38
2023-06-12T15:39:19.780Z,4.30
2023-06-12T15:41:22.536Z,4.10
2023-06-12T15:43:25.428Z,4.43
2023-06-12T15:45:28.181Z,3.85
2023-06-12T15:47:31.214Z,4.30
2023-06-12T15:49:33.970Z,4.22
2023-06-12T15:51:36.688Z,4.15
2023-06-12T15:53:40.797Z,4.05
2023-06-12T15:55:43.622Z,4.10
2023-06-12T15:57:46.423Z,4.28
2023-06-12T15:59:49.142Z,4.30
2023-06-12T16:01:54.106Z,4.22
2023-06-12T16:03:57.388Z,4.28
2023-06-12T16:06:00.746Z,3.95
2023-06-12T16:08:03.570Z,4.57
2023-06-12T16:10:08.425Z,4.15
2023-06-12T16:12:11.799Z,4.10
2023-06-12T16:14:14.610Z,4.22
2023-06-12T16:16:17.402Z,4.25
2023-06-12T16:18:20.242Z,4.20
2023-06-12T16:20:23.528Z,4.15
2023-06-12T16:22:26.388Z,4.00
2023-06-12T16:24:30.535Z,4.30
2023-06-12T16:26:34.796Z,4.40
2023-06-12T16:28:37.568Z,3.95
2023-06-12T16:30:40.346Z,3.63
2023-06-12T16:32:43.367Z,3.80
2023-06-12T16:34:46.141Z,4.38
2023-06-12T16:36:48.909Z,4.10
2023-06-12T16:38:51.677Z,4.38
2023-06-12T16:40:55.496Z,4.15
2023-06-12T16:42:59.652Z,4.28
2023-06-12T16:45:02.407Z,4.10
2023-06-12T16:47:05.830Z,4.45
2023-06-12T16:49:08.585Z,4.05
2023-06-12T16:51:13.830Z,3.85
2023-06-12T16:53:16.597Z,3.67
2023-06-12T16:55:19.613Z,4.20
2023-06-12T16:57:23.020Z,4.05
2023-06-12T16:59:27.192Z,3.75
2023-06-12T17:01:30.003Z,4.03
2023-06-12T17:03:32.937Z,4.65
2023-06-12T17:05:35.804Z,4.50
2023-06-12T17:07:38.557Z,4.05
2023-06-12T17:09:44.035Z,4.63
2023-06-12T17:11:50.134Z,4.65
2023-06-12T17:13:52.827Z,4.50
2023-06-12T17:15:56.977Z,4.45
2023-06-12T17:17:59.704Z,4.00
2023-06-12T17:20:02.549Z,4.45
2023-06-12T17:22:06.259Z,4.00
2023-06-12T17:24:09.111Z,4.22
2023-06-12T17:26:12.575Z,4.03
2023-06-12T17:28:15.322Z,4.10
2023-06-12T17:30:18.081Z,3.88
2023-06-12T17:32:22.299Z,4.15
2023-06-12T17:34:25.203Z,3.60
2023-06-12T17:36:27.950Z,4.13
2023-06-12T17:38:30.739Z,3.60
2023-06-12T17:40:34.185Z,4.15
2023-06-12T17:42:36.988Z,3.78
2023-06-12T17:44:43.648Z,4.20
2023-06-12T17:46:46.349Z,4.03
2023-06-12T17:48:50.609Z,4.32
2023-06-12T17:50:53.358Z,4.38
2023-06-12T17:52:56.069Z,3.90
2023-06-12T17:54:58.841Z,4.00
2023-06-12T17:57:01.591Z,4.05
2023-06-12T17:59:04.382Z,3.78
2023-06-12T18:01:07.092Z,3.78
2023-06-12T18:03:10.037Z,3.92
2023-06-12T18:05:14.307Z,4.45
2023-06-12T18:07:17.372Z,4.15
2023-06-12T18:09:20.123Z,4.00
2023-06-12T18:11:22.839Z,3.97
2023-06-12T18:13:25.697Z,3.33
2023-06-12T18:15:28.711Z,4.00
2023-06-12T18:17:31.590Z,4.00
2023-06-12T18:19:34.671Z,3.92
2023-06-12T18:21:39.604Z,4.00
2023-06-12T18:23:42.656Z,3.63
2023-06-12T18:25:45.500Z,3.95
2023-06-12T18:27:48.201Z,3.28
2023-06-12T18:29:52.440Z,3.75
2023-06-12T18:31:55.351Z,3.88
2023-06-12T18:33:58.086Z,3.28
2023-06-12T18:36:01.225Z,3.53
2023-06-12T18:38:06.671Z,3.65
2023-06-12T18:40:10.652Z,3.58
2023-06-12T18:42:13.438Z,3.63
2023-06-12T18:44:18.174Z,3.65
2023-06-12T18:46:23.648Z,3.67
2023-06-12T18:48:26.614Z,3.75
2023-06-12T18:50:29.403Z,3.60
2023-06-12T18:52:32.117Z,3.90
2023-06-12T18:54:37.677Z,3.95
2023-06-12T18:56:40.458Z,3.80
2023-06-12T18:58:43.200Z,3.63
2023-06-12T19:00:46.525Z,3.67
2023-06-12T19:02:49.386Z,3.58
2023-06-12T19:04:52.228Z,3.28
2023-06-12T19:06:54.944Z,4.03
2023-06-12T19:08:57.751Z,3.67
2023-06-12T19:11:01.896Z,3.40
2023-06-12T19:13:04.730Z,3.58
2023-06-12T19:15:08.957Z,3.33
2023-06-12T19:17:12.179Z,3.72
2023-06-12T19:19:14.901Z,3.33
2023-06-12T19:21:17.747Z,3.03
2023-06-12T19:23:20.483Z,3.33
2023-06-12T19:25:23.290Z,3.58
2023-06-12T19:27:27.530Z,3.47
2023-06-12T19:29:30.314Z,3.38
2023-06-12T19:31:33.067Z,3.42
2023-06-12T19:33:35.767Z,3.47
2023-06-12T19:35:39.042Z,3.38
2023-06-12T19:37:41.767Z,3.40
2023-06-12T19:39:45.169Z,3.72
2023-06-12T19:41:47.892Z,3.47
2023-06-12T19:43:52.047Z,3.55
2023-06-12T19:45:56.365Z,3.20
2023-06-12T19:47:59.284Z,3.40
2023-06-12T19:50:03.403Z,3.03
2023-06-12T19:52:07.078Z,3.22
2023-06-12T19:54:09.856Z,3.55
2023-06-12T19:56:14.003Z,3.60
2023-06-12T19:58:16.797Z,3.30
2023-06-12T20:00:22.092Z,3.08
2023-06-12T20:02:24.988Z,3.30
2023-06-12T20:04:27.842Z,3.00
2023-06-12T20:06:30.660Z,2.67
2023-06-12T20:08:35.088Z,2.95
2023-06-12T20:10:38.718Z,3.00
2023-06-12T20:12:41.523Z,2.80
2023-06-12T20:14:44.316Z,3.42
2023-06-12T20:16:48.602Z,3.28
2023-06-12T20:18:51.482Z,2.88
2023-06-12T20:20:54.187Z,3.28
2023-06-12T20:23:00.780Z,3.40
2023-06-12T20:25:04.134Z,3.00
2023-06-12T20:27:07.550Z,3.28
2023-06-12T20:29:10.405Z,3.08
2023-06-12T20:31:13.258Z,3.20
2023-06-12T20:33:17.822Z,3.17
2023-06-12T20:35:20.726Z,3.13
2023-06-12T20:37:23.570Z,3.20
2023-06-12T20:39:26.324Z,3.15
2023-06-12T20:41:29.085Z,3.10
2023-06-12T20:43:31.847Z,3.50
2023-06-12T20:45:34.667Z,3.20
2023-06-12T20:47:37.512Z,3.30
2023-06-12T20:49:41.672Z,2.92
2023-06-12T20:51:44.521Z,3.20
2023-06-12T20:53:47.311Z,3.13
2023-06-12T20:55:50.128Z,3.28
2023-06-12T20:57:52.971Z,3.20
2023-06-12T20:59:55.840Z,3.20
2023-06-12T21:01:58.560Z,2.95
2023-06-12T21:04:01.381Z,3.00
2023-06-12T21:06:06.379Z,2.97
2023-06-12T21:08:09.222Z,2.85
2023-06-12T21:10:12.229Z,3.10
2023-06-12T21:12:15.065Z,3.10
2023-06-12T21:14:18.721Z,3.42
2023-06-12T21:16:21.629Z,3.33
2023-06-12T21:18:24.408Z,3.03
2023-06-12T21:20:27.157Z,3.00
2023-06-12T21:22:42.018Z,3.13
2023-06-12T21:24:44.818Z,3.00
2023-06-12T21:26:47.513Z,3.53
2023-06-12T21:28:50.309Z,3.08
2023-06-12T21:30:53.228Z,3.28
2023-06-12T21:32:56.169Z,3.40
2023-06-12T21:35:02.260Z,2.80
2023-06-12T21:37:21.616Z,2.88
2023-06-12T21:39:27.676Z,3.30
2023-06-12T21:41:30.647Z,3.38
2023-06-12T21:43:33.396Z,3.13
2023-06-12T21:45:36.140Z,3.80
2023-06-12T21:47:39.238Z,3.72
2023-06-12T21:49:42.084Z,2.92
2023-06-12T21:51:45.013Z,3.35
2023-06-12T21:53:47.795Z,3.28
2023-06-12T21:55:54.064Z,3.35
2023-06-12T21:57:56.825Z,3.20
2023-06-12T21:59:59.545Z,3.10
2023-06-12T22:02:02.252Z,3.38
2023-06-12T22:04:05.344Z,3.30
2023-06-12T22:06:08.233Z,3.42
2023-06-12T22:08:12.376Z,3.53
2023-06-12T22:10:15.265Z,3.22
2023-06-12T22:12:19.436Z,3.35
2023-06-12T22:14:22.219Z,3.35
2023-06-12T22:16:24.911Z,3.30
2023-06-12T22:18:27.880Z,2.88
2023-06-12T22:20:30.922Z,3.10
2023-06-12T22:22:33.636Z,3.30
2023-06-12T22:24:36.354Z,3.60
2023-06-12T22:26:39.132Z,3.58
2023-06-12T22:28:43.332Z,2.90
2023-06-12T22:31:00.679Z,2.92
2023-06-12T22:33:05.174Z,3.28
2023-06-12T22:35:08.449Z,3.00
2023-06-12T22:37:11.465Z,3.10
2023-06-12T22:39:14.280Z,3.40
2023-06-12T22:41:16.987Z,3.17
2023-06-12T22:43:19.765Z,3.63
2023-06-12T22:45:26.426Z,2.92
2023-06-12T22:47:29.217Z,2.85
2023-06-12T22:49:31.958Z,3.10
2023-06-12T22:51:34.658Z,3.00
2023-06-12T22:53:37.744Z,2.88
2023-06-12T22:55:40.561Z,3.33
2023-06-12T22:57:43.923Z,3.03
2023-06-12T22:59:46.678Z,2.92
2023-06-12T23:01:50.835Z,2.95
2023-06-12T23:03:53.602Z,3.05
2023-06-12T23:05:56.448Z,2.80
2023-06-12T23:07:59.687Z,3.38
2023-06-12T23:10:02.403Z,3.35
2023-06-12T23:12:06.000Z,2.90
2023-06-12T23:14:08.755Z,2.90
2023-06-12T23:16:15.493Z,3.03
2023-06-12T23:18:19.808Z,3.42
2023-06-12T23:20:24.390Z,2.95
2023-06-12T23:22:30.283Z,3.20
2023-06-12T23:24:34.845Z,3.28
2023-06-12T23:26:37.616Z,3.05
2023-06-12T23:28:40.314Z,3.10
2023-06-12T23:30:43.036Z,2.90
2023-06-12T23:32:45.832Z,2.90
2023-06-12T23:34:51.995Z,3.20
2023-06-12T23:36:57.067Z,2.88
2023-06-12T23:38:59.788Z,3.13
2023-06-12T23:41:02.506Z,3.08
2023-06-12T23:43:05.288Z,2.90
2023-06-12T23:45:08.943Z,2.70
2023-06-12T23:47:11.895Z,3.03
2023-06-12T23:49:14.671Z,3.00
2023-06-12T23:51:18.740Z,2.90
2023-06-12T23:53:21.471Z,3.40
2023-06-12T23:55:24.259Z,3.00
2023-06-12T23:57:27.799Z,3.28
2023-06-12T23:59:32.314Z,3.55
